Time,TemperatureF,DewpointF,PressureIn,WindDirection,WindDirectionDegrees,WindSpeedMPH,WindSpeedGustMPH,Humidity,HourlyPrecipIn,Conditions,Clouds,dailyrainin,SolarRadiationWatts/m^2,SoftwareType,DateUTC
2013-03-06 00:07:00,45.7,27.6,30.33,North,355,5.0,10.0,49,0.00,,---,0.00,0.00,VWS V14.00,2013-03-06 06:07:00,
2013-03-06 00:16:00,45.4,28.4,30.33,NW,321,0.0,5.0,51,0.00,,---,0.00,0.00,VWS V14.00,2013-03-06 06:16:00,
2013-03-06 00:24:00,45.2,27.7,30.33,NW,311,4.0,6.0,50,0.00,,---,0.00,0.00,VWS V14.00,2013-03-06 06:24:00,
2013-03-06 00:32:00,45.2,27.2,30.33,NNW,340,6.0,7.0,49,0.00,,---,0.00,0.00,VWS V14.00,2013-03-06 06:32:00,
2013-03-06 00:37:00,45.2,26.7,30.34,NNE,13,5.0,9.0,48,0.00,,---,0.00,0.00,VWS V14.00,2013-03-06 06:37:00,
2013-03-06 00:44:00,45.1,27.1,30.34,NNW,332,6.0,6.0,49,0.00,,---,0.00,0.00,VWS V14.00,2013-03-06 06:44:00,
2013-03-06 00:52:00,44.9,27.9,30.33,North,355,6.0,11.0,51,0.00,,---,0.00,0.00,VWS V14.00,2013-03-06 06:52:00,
2013-03-06 01:00:00,44.9,27.9,30.33,NNW,327,9.0,11.0,51,0.00,,---,0.00,0.00,VWS V14.00,2013-03-06 07:00:00,
2013-03-06 01:08:00,44.7,27.7,30.35,NW,324,0.0,11.0,51,0.00,,---,0.00,0.00,VWS V14.00,2013-03-06 07:08:00,
2013-03-06 01:16:00,44.2,27.7,30.35,NNW,344,2.0,7.0,52,0.00,,---,0.00,0.00,VWS V14.00,2013-03-06 07:16:00,
2013-03-06 01:25:00,44.0,27.0,30.35,North,360,4.0,9.0,51,0.00,,---,0.00,0.00,VWS V14.00,2013-03-06 07:25:00,
2013-03-06 01:33:00,43.8,26.9,30.35,NNW,347,4.0,12.0,51,0.00,,---,0.00,0.00,VWS V14.00,2013-03-06 07:33:00,
2013-03-06 01:38:00,43.7,27.2,30.35,NNE,15,7.0,12.0,52,0.00,,---,0.00,0.00,VWS V14.00,2013-03-06 07:38:00,
2013-03-06 01:45:00,43.4,27.4,30.35,North,350,2.0,12.0,53,0.00,,---,0.00,0.00,VWS V14.00,2013-03-06 07:45:00,
2013-03-06 01:53:00,43.0,27.0,30.35,North,5,6.0,12.0,53,0.00,,---,0.00,0.00,VWS V14.00,2013-03-06 07:53:00,
2013-03-06 02:01:00,42.9,27.9,30.35,North,5,6.0,13.0,55,0.00,,---,0.00,0.00,VWS V14.00,2013-03-06 08:01:00,
2013-03-06 02:08:00,42.7,27.7,30.35,NW,324,7.0,13.0,55,0.00,,---,0.00,0.00,VWS V14.00,2013-03-06 08:08:00,
2013-03-06 02:13:00,42.4,27.4,30.35,North,355,6.0,10.0,55,0.00,,---,0.00,0.00,VWS V14.00,2013-03-06 08:13:00,
2013-03-06 02:21:00,42.1,28.0,30.35,North,5,7.0,10.0,57,0.00,,---,0.00,0.00,VWS V14.00,2013-03-06 08:21:00,
2013-03-06 02:29:00,42.0,27.5,30.35,North,9,9.0,13.0,56,0.00,,---,0.00,0.00,VWS V14.00,2013-03-06 08:29:00,
2013-03-06 02:37:00,41.7,27.6,30.35,NW,306,11.0,13.0,57,0.00,,---,0.00,0.00,VWS V14.00,2013-03-06 08:37:00,
2013-03-06 02:46:00,41.5,27.4,30.35,NNE,16,4.0,11.0,57,0.00,,---,0.00,0.00,VWS V14.00,2013-03-06 08:46:00,
2013-03-06 02:54:00,41.3,27.2,30.35,NNW,348,7.0,11.0,57,0.00,,---,0.00,0.00,VWS V14.00,2013-03-06 08:54:00,
2013-03-06 03:02:00,41.3,27.6,30.35,NNW,348,11.0,11.0,58,0.00,,---,0.00,0.00,VWS V14.00,2013-03-06 09:02:00,
2013-03-06 03:08:00,41.4,28.2,30.35,NW,323,8.0,13.0,59,0.00,,---,0.00,0.00,VWS V14.00,2013-03-06 09:08:00,
2013-03-06 03:14:00,41.3,28.1,30.35,NNW,337,5.0,9.0,59,0.00,,---,0.00,0.00,VWS V14.00,2013-03-06 09:14:00,
2013-03-06 03:22:00,41.1,27.9,30.35,NNE,23,4.0,16.0,59,0.00,,---,0.00,0.00,VWS V14.00,2013-03-06 09:22:00,
2013-03-06 03:30:00,40.9,27.7,30.34,WNW,295,6.0,16.0,59,0.00,,---,0.00,0.00,VWS V14.00,2013-03-06 09:30:00,
2013-03-06 03:38:00,40.7,27.9,30.34,North,360,3.0,16.0,60,0.00,,---,0.00,0.00,VWS V14.00,2013-03-06 09:38:00,
2013-03-06 03:47:00,40.7,27.9,30.34,North,5,2.0,11.0,60,0.00,,---,0.00,0.00,VWS V14.00,2013-03-06 09:47:00,
2013-03-06 03:55:00,40.4,28.0,30.34,NNE,19,6.0,11.0,61,0.00,,---,0.00,0.00,VWS V14.00,2013-03-06 09:55:00,
2013-03-06 04:03:00,40.4,27.6,30.34,NNW,340,7.0,11.0,60,0.00,,---,0.00,0.00,VWS V14.00,2013-03-06 10:03:00,
2013-03-06 04:08:00,40.3,27.5,30.34,North,10,4.0,11.0,60,0.00,,---,0.00,0.00,VWS V14.00,2013-03-06 10:08:00,
2013-03-06 04:15:00,40.0,28.0,30.34,North,5,3.0,7.0,62,0.00,,---,0.00,0.00,VWS V14.00,2013-03-06 10:15:00,
2013-03-06 04:23:00,40.0,27.2,30.35,North,11,10.0,10.0,60,0.00,,---,0.00,0.00,VWS V14.00,2013-03-06 10:23:00,
2013-03-06 04:31:00,39.9,27.6,30.35,North,360,5.0,13.0,61,0.00,,---,0.00,0.00,VWS V14.00,2013-03-06 10:31:00,
2013-03-06 04:38:00,39.6,27.3,30.36,North,360,3.0,13.0,61,0.00,,---,0.00,0.00,VWS V14.00,2013-03-06 10:38:00,
2013-03-06 04:44:00,39.5,27.2,30.36,North,11,10.0,10.0,61,0.00,,---,0.00,0.00,VWS V14.00,2013-03-06 10:44:00,
2013-03-06 04:52:00,39.4,27.1,30.36,North,5,4.0,10.0,61,0.00,,---,0.00,0.00,VWS V14.00,2013-03-06 10:52:00,
2013-03-06 05:00:00,39.2,26.9,30.36,NNE,18,3.0,10.0,61,0.00,,---,0.00,0.00,VWS V14.00,2013-03-06 11:00:00,
2013-03-06 05:08:00,38.9,27.0,30.36,NNE,21,3.0,10.0,62,0.00,,---,0.00,0.00,VWS V14.00,2013-03-06 11:08:00,
2013-03-06 05:16:00,38.6,26.7,30.36,North,5,5.0,7.0,62,0.00,,---,0.00,0.00,VWS V14.00,2013-03-06 11:16:00,
2013-03-06 05:24:00,38.5,27.0,30.36,North,10,4.0,7.0,63,0.00,,---,0.00,0.00,VWS V14.00,2013-03-06 11:24:00,
2013-03-06 05:32:00,38.3,26.8,30.36,North,350,5.0,7.0,63,0.00,,---,0.00,0.00,VWS V14.00,2013-03-06 11:32:00,
2013-03-06 05:39:00,38.3,26.8,30.37,North,360,5.0,9.0,63,0.00,,---,0.00,0.00,VWS V14.00,2013-03-06 11:39:00,
2013-03-06 05:45:00,38.3,26.4,30.37,North,360,1.0,5.0,62,0.00,,---,0.00,0.00,VWS V14.00,2013-03-06 11:45:00,
2013-03-06 05:53:00,38.1,26.2,30.37,NNE,19,3.0,7.0,62,0.00,,---,0.00,0.00,VWS V14.00,2013-03-06 11:53:00,
2013-03-06 06:01:00,38.1,26.6,30.37,NNW,338,6.0,7.0,63,0.00,,---,0.00,0.00,VWS V14.00,2013-03-06 12:01:00,
2013-03-06 06:08:00,38.2,27.1,30.37,North,360,5.0,7.0,64,0.00,,---,0.00,0.00,VWS V14.00,2013-03-06 12:08:00,
2013-03-06 06:13:00,38.2,26.7,30.37,NNE,17,2.0,7.0,63,0.00,,---,0.00,0.00,VWS V14.00,2013-03-06 12:13:00,
2013-03-06 06:21:00,38.0,26.9,30.37,North,355,2.0,7.0,64,0.00,,---,0.00,0.00,VWS V14.00,2013-03-06 12:21:00,
2013-03-06 06:29:00,37.8,26.7,30.38,North,360,4.0,7.0,64,0.00,,---,0.00,0.00,VWS V14.00,2013-03-06 12:29:00,
2013-03-06 06:37:00,37.6,26.5,30.38,North,360,4.0,7.0,64,0.00,,---,0.00,0.00,VWS V14.00,2013-03-06 12:37:00,
2013-03-06 06:46:00,37.7,26.6,30.38,North,5,4.0,6.0,64,0.00,,---,0.00,5.00,VWS V14.00,2013-03-06 12:46:00,
2013-03-06 06:54:00,37.2,26.5,30.39,NNE,29,2.0,6.0,65,0.00,,---,0.00,14.00,VWS V14.00,2013-03-06 12:54:00,
2013-03-06 07:02:00,37.4,26.0,30.39,NNE,15,1.0,6.0,63,0.00,,---,0.00,25.00,VWS V14.00,2013-03-06 13:02:00,
2013-03-06 07:08:00,37.5,26.5,30.39,NNE,31,2.0,6.0,64,0.00,,---,0.00,33.00,VWS V14.00,2013-03-06 13:08:00,
2013-03-06 07:14:00,37.6,26.5,30.39,NE,37,2.0,5.0,64,0.00,,---,0.00,62.00,VWS V14.00,2013-03-06 13:14:00,
2013-03-06 07:22:00,38.1,26.2,30.40,NNW,345,2.0,6.0,62,0.00,,---,0.00,70.00,VWS V14.00,2013-03-06 13:22:00,
2013-03-06 07:30:00,38.5,25.8,30.40,North,9,3.0,11.0,60,0.00,,---,0.00,69.00,VWS V14.00,2013-03-06 13:30:00,
2013-03-06 07:38:00,38.8,25.3,30.40,North,9,3.0,11.0,58,0.00,,---,0.00,90.00,VWS V14.00,2013-03-06 13:38:00,
2013-03-06 07:47:00,39.2,26.1,30.40,North,355,7.0,7.0,59,0.00,,---,0.00,158.00,VWS V14.00,2013-03-06 13:47:00,
2013-03-06 07:55:00,39.6,26.1,30.41,North,9,0.0,7.0,58,0.00,,---,0.00,204.00,VWS V14.00,2013-03-06 13:55:00,
2013-03-06 08:07:00,40.0,26.0,30.42,NNE,31,0.0,7.0,57,0.00,,---,0.00,250.00,VWS V14.00,2013-03-06 14:07:00,
2013-03-06 08:15:00,40.5,26.5,30.42,North,351,2.0,7.0,57,0.00,,---,0.00,283.00,VWS V14.00,2013-03-06 14:15:00,
2013-03-06 08:23:00,41.1,26.6,30.43,NNW,345,6.0,7.0,56,0.00,,---,0.00,309.00,VWS V14.00,2013-03-06 14:23:00,
2013-03-06 08:31:00,41.4,25.1,30.43,NNE,18,3.0,8.0,52,0.00,,---,0.00,339.00,VWS V14.00,2013-03-06 14:31:00,
2013-03-06 08:38:00,41.5,25.7,30.43,NNE,15,6.0,8.0,53,0.00,,---,0.00,366.00,VWS V14.00,2013-03-06 14:38:00,
2013-03-06 08:44:00,41.9,25.6,30.43,North,350,5.0,6.0,52,0.00,,---,0.00,383.00,VWS V14.00,2013-03-06 14:44:00,
2013-03-06 08:52:00,42.2,25.4,30.43,NNE,15,2.0,7.0,51,0.00,,---,0.00,415.00,VWS V14.00,2013-03-06 14:52:00,
2013-03-06 09:00:00,42.3,25.9,30.44,NE,50,1.0,9.0,52,0.00,,---,0.00,445.00,VWS V14.00,2013-03-06 15:00:00,
2013-03-06 09:08:00,42.6,25.8,30.44,NNE,32,2.0,9.0,51,0.00,,---,0.00,469.00,VWS V14.00,2013-03-06 15:08:00,
2013-03-06 09:16:00,43.0,27.0,30.44,ENE,64,2.0,6.0,53,0.00,,---,0.00,492.00,VWS V14.00,2013-03-06 15:16:00,
2013-03-06 09:24:00,43.1,27.1,30.44,NE,45,3.0,6.0,53,0.00,,---,0.00,519.00,VWS V14.00,2013-03-06 15:24:00,
2013-03-06 09:37:00,44.3,27.8,30.44,NE,37,2.0,6.0,52,0.00,,---,0.00,563.00,VWS V14.00,2013-03-06 15:37:00,
2013-03-06 09:45:00,44.5,26.0,30.44,NE,47,2.0,5.0,48,0.00,,---,0.00,587.00,VWS V14.00,2013-03-06 15:45:00,
2013-03-06 09:53:00,44.0,27.5,30.44,ENE,67,3.0,5.0,52,0.00,,---,0.00,610.00,VWS V14.00,2013-03-06 15:53:00,
2013-03-06 10:01:00,44.2,25.8,30.44,ENE,66,4.0,5.0,48,0.00,,---,0.00,628.00,VWS V14.00,2013-03-06 16:01:00,
2013-03-06 10:08:00,44.9,25.4,30.43,NNE,24,1.0,5.0,46,0.00,,---,0.00,649.00,VWS V14.00,2013-03-06 16:08:00,
2013-03-06 10:13:00,45.4,25.9,30.43,ENE,69,3.0,3.0,46,0.00,,---,0.00,663.00,VWS V14.00,2013-03-06 16:13:00,
2013-03-06 10:21:00,44.9,26.4,30.43,ENE,69,1.0,5.0,48,0.00,,---,0.00,682.00,VWS V14.00,2013-03-06 16:21:00,
2013-03-06 10:29:00,46.7,26.0,30.43,ENE,65,3.0,5.0,44,0.00,,---,0.00,707.00,VWS V14.00,2013-03-06 16:29:00,
2013-03-06 10:37:00,46.9,26.7,30.42,ENE,69,1.0,5.0,45,0.00,,---,0.00,728.00,VWS V14.00,2013-03-06 16:37:00,
2013-03-06 10:46:00,47.1,27.9,30.42,North,5,0.0,4.0,47,0.00,,---,0.00,759.00,VWS V14.00,2013-03-06 16:46:00,
2013-03-06 10:54:00,47.9,26.5,30.42,ENE,67,2.0,4.0,43,0.00,,---,0.00,780.00,VWS V14.00,2013-03-06 16:54:00,
2013-03-06 11:02:00,47.2,24.7,30.42,ENE,69,3.0,5.0,41,0.00,,---,0.00,766.00,VWS V14.00,2013-03-06 17:02:00,
2013-03-06 11:08:00,47.9,27.0,30.42,ENE,69,2.0,5.0,44,0.00,,---,0.00,809.00,VWS V14.00,2013-03-06 17:08:00,
2013-03-06 11:14:00,48.2,25.6,30.42,ENE,77,1.0,2.0,41,0.00,,---,0.00,828.00,VWS V14.00,2013-03-06 17:14:00,
2013-03-06 11:22:00,48.2,26.8,30.41,SE,137,0.0,3.0,43,0.00,,---,0.00,731.00,VWS V14.00,2013-03-06 17:22:00,
2013-03-06 11:30:00,49.1,25.8,30.41,ENE,76,2.0,3.0,40,0.00,,---,0.00,765.00,VWS V14.00,2013-03-06 17:30:00,
2013-03-06 11:38:00,49.6,26.9,30.40,ENE,74,0.0,3.0,41,0.00,,---,0.00,826.00,VWS V14.00,2013-03-06 17:38:00,
2013-03-06 11:47:00,51.5,28.0,30.40,NE,49,3.0,3.0,40,0.00,,---,0.00,779.00,VWS V14.00,2013-03-06 17:47:00,
2013-03-06 11:55:00,49.9,25.3,30.40,ENE,65,0.0,3.0,38,0.00,,---,0.00,710.00,VWS V14.00,2013-03-06 17:55:00,
2013-03-06 12:03:00,50.9,28.1,30.40,NE,51,1.0,3.0,41,0.00,,---,0.00,766.00,VWS V14.00,2013-03-06 18:03:00,
2013-03-06 12:08:00,51.6,26.8,30.38,East,86,2.0,3.0,38,0.00,,---,0.00,745.00,VWS V14.00,2013-03-06 18:08:00,
2013-03-06 12:15:00,51.6,26.2,30.38,ENE,74,1.0,5.0,37,0.00,,---,0.00,803.00,VWS V14.00,2013-03-06 18:15:00,
2013-03-06 12:23:00,51.3,25.3,30.38,ENE,72,2.0,5.0,36,0.00,,---,0.00,621.00,VWS V14.00,2013-03-06 18:23:00,
2013-03-06 12:31:00,51.7,25.6,30.38,ENE,71,0.0,5.0,36,0.00,,---,0.00,629.00,VWS V14.00,2013-03-06 18:31:00,
2013-03-06 12:38:00,51.6,25.5,30.37,ENE,70,2.0,5.0,36,0.00,,---,0.00,752.00,VWS V14.00,2013-03-06 18:38:00,
2013-03-06 12:43:00,52.2,24.0,30.37,NE,44,0.0,4.0,33,0.00,,---,0.00,812.00,VWS V14.00,2013-03-06 18:43:00,
2013-03-06 12:51:00,53.0,26.1,30.37,ENE,69,2.0,4.0,35,0.00,,---,0.00,867.00,VWS V14.00,2013-03-06 18:51:00,
2013-03-06 13:00:00,53.6,22.9,30.36,North,360,4.0,4.0,30,0.00,,---,0.00,853.00,VWS V14.00,2013-03-06 19:00:00,
2013-03-06 13:08:00,53.6,24.5,30.35,NNW,346,0.0,4.0,32,0.00,,---,0.00,835.00,VWS V14.00,2013-03-06 19:08:00,
2013-03-06 13:16:00,53.3,24.2,30.35,NW,323,0.0,4.0,32,0.00,,---,0.00,831.00,VWS V14.00,2013-03-06 19:16:00,
2013-03-06 13:24:00,53.9,28.2,30.34,East,81,3.0,4.0,37,0.00,,---,0.00,826.00,VWS V14.00,2013-03-06 19:24:00,
2013-03-06 13:32:00,54.4,28.0,30.34,East,79,1.0,4.0,36,0.00,,---,0.00,821.00,VWS V14.00,2013-03-06 19:32:00,
2013-03-06 13:38:00,53.5,28.5,30.33,ENE,74,1.0,4.0,38,0.00,,---,0.00,816.00,VWS V14.00,2013-03-06 19:38:00,
2013-03-06 13:44:00,53.4,27.1,30.33,East,88,3.0,4.0,36,0.00,,---,0.00,793.00,VWS V14.00,2013-03-06 19:44:00,
2013-03-06 13:53:00,54.1,29.7,30.32,ENE,58,6.0,6.0,39,0.00,,---,0.00,791.00,VWS V14.00,2013-03-06 19:53:00,
2013-03-06 14:01:00,54.1,29.1,30.32,ENE,74,3.0,6.0,38,0.00,,---,0.00,773.00,VWS V14.00,2013-03-06 20:01:00,
2013-03-06 14:08:00,55.9,30.0,30.32,North,5,3.0,6.0,37,0.00,,---,0.00,768.00,VWS V14.00,2013-03-06 20:08:00,
2013-03-06 14:17:00,55.3,31.4,30.32,ENE,67,3.0,4.0,40,0.00,,---,0.00,752.00,VWS V14.00,2013-03-06 20:17:00,
2013-03-06 14:25:00,55.1,28.0,30.31,ENE,67,5.0,5.0,35,0.00,,---,0.00,726.00,VWS V14.00,2013-03-06 20:25:00,
2013-03-06 14:33:00,54.8,30.3,30.31,ENE,76,5.0,5.0,39,0.00,,---,0.00,722.00,VWS V14.00,2013-03-06 20:33:00,
2013-03-06 14:38:00,54.9,29.1,30.30,ENE,71,4.0,5.0,37,0.00,,---,0.00,715.00,VWS V14.00,2013-03-06 20:38:00,
2013-03-06 14:45:00,56.9,27.4,30.30,NE,39,3.0,5.0,32,0.00,,---,0.00,694.00,VWS V14.00,2013-03-06 20:45:00,
2013-03-06 14:54:00,58.4,29.4,30.29,NNW,346,3.0,6.0,33,0.00,,---,0.00,675.00,VWS V14.00,2013-03-06 20:54:00,
2013-03-06 15:02:00,57.7,24.0,30.29,NNE,17,4.0,7.0,27,0.00,,---,0.00,654.00,VWS V14.00,2013-03-06 21:02:00,
2013-03-06 15:08:00,58.4,25.5,30.28,NE,36,1.0,7.0,28,0.00,,---,0.00,629.00,VWS V14.00,2013-03-06 21:08:00,
2013-03-06 15:14:00,58.7,23.0,30.28,North,5,4.0,7.0,25,0.00,,---,0.00,617.00,VWS V14.00,2013-03-06 21:14:00,
2013-03-06 15:22:00,58.6,20.9,30.29,NNE,21,4.0,7.0,23,0.00,,---,0.00,596.00,VWS V14.00,2013-03-06 21:22:00,
2013-03-06 15:30:00,60.0,25.0,30.29,North,11,3.0,7.0,26,0.00,,---,0.00,557.00,VWS V14.00,2013-03-06 21:30:00,
2013-03-06 15:38:00,59.1,19.2,30.28,NE,38,1.0,7.0,21,0.00,,---,0.00,545.00,VWS V14.00,2013-03-06 21:38:00,
2013-03-06 15:46:00,59.2,26.1,30.28,NE,51,3.0,4.0,28,0.00,,---,0.00,473.00,VWS V14.00,2013-03-06 21:46:00,
2013-03-06 15:54:00,58.1,32.0,30.27,ENE,69,3.0,4.0,37,0.00,,---,0.00,503.00,VWS V14.00,2013-03-06 21:54:00,
2013-03-06 16:03:00,58.1,26.0,30.27,ENE,69,3.0,4.0,29,0.00,,---,0.00,487.00,VWS V14.00,2013-03-06 22:03:00,
2013-03-06 16:11:00,58.3,27.0,30.26,ENE,64,2.0,4.0,30,0.00,,---,0.00,429.00,VWS V14.00,2013-03-06 22:11:00,
2013-03-06 16:19:00,58.0,27.6,30.26,ENE,69,2.0,5.0,31,0.00,,---,0.00,373.00,VWS V14.00,2013-03-06 22:19:00,
2013-03-06 16:27:00,58.2,27.7,30.26,ENE,68,2.0,5.0,31,0.00,,---,0.00,302.00,VWS V14.00,2013-03-06 22:27:00,
2013-03-06 16:35:00,57.8,29.6,30.26,ENE,68,0.0,5.0,34,0.00,,---,0.00,367.00,VWS V14.00,2013-03-06 22:35:00,
2013-03-06 16:43:00,58.9,22.2,30.25,ENE,65,0.0,2.0,24,0.00,,---,0.00,267.00,VWS V14.00,2013-03-06 22:43:00,
2013-03-06 16:51:00,57.1,29.0,30.25,ENE,65,3.0,3.0,34,0.00,,---,0.00,151.00,VWS V14.00,2013-03-06 22:51:00,
2013-03-06 17:00:00,56.4,27.7,30.24,ENE,78,1.0,3.0,33,0.00,,---,0.00,84.00,VWS V14.00,2013-03-06 23:00:00,
2013-03-06 17:08:00,56.3,31.7,30.24,ENE,78,0.0,3.0,39,0.00,,---,0.00,81.00,VWS V14.00,2013-03-06 23:08:00,
2013-03-06 17:16:00,56.2,30.3,30.24,ENE,78,0.0,1.0,37,0.00,,---,0.00,65.00,VWS V14.00,2013-03-06 23:16:00,
2013-03-06 17:24:00,55.7,29.2,30.24,ENE,78,0.0,1.0,36,0.00,,---,0.00,47.00,VWS V14.00,2013-03-06 23:24:00,
2013-03-06 17:32:00,55.2,33.1,30.24,ENE,78,0.0,1.0,43,0.00,,---,0.00,42.00,VWS V14.00,2013-03-06 23:32:00,
2013-03-06 17:38:00,54.8,33.3,30.23,ENE,78,0.0,1.0,44,0.00,,---,0.00,44.00,VWS V14.00,2013-03-06 23:38:00,
2013-03-06 17:44:00,55.0,34.6,30.23,ENE,78,0.0,0.0,46,0.00,,---,0.00,40.00,VWS V14.00,2013-03-06 23:44:00,
2013-03-06 17:53:00,54.4,33.0,30.23,ENE,78,0.0,0.0,44,0.00,,---,0.00,30.00,VWS V14.00,2013-03-06 23:53:00,
2013-03-06 18:01:00,54.1,32.1,30.23,ENE,78,0.0,0.0,43,0.00,,---,0.00,19.00,VWS V14.00,2013-03-07 00:01:00,
2013-03-06 18:08:00,54.4,31.2,30.23,ENE,78,0.0,0.0,41,0.00,,---,0.00,12.00,VWS V14.00,2013-03-07 00:08:00,
2013-03-06 18:21:00,53.9,34.2,30.23,ENE,78,0.0,0.0,47,0.00,,---,0.00,0.00,VWS V14.00,2013-03-07 00:21:00,
2013-03-06 18:29:00,53.2,35.6,30.23,ENE,78,0.0,0.0,51,0.00,,---,0.00,0.00,VWS V14.00,2013-03-07 00:29:00,
2013-03-06 18:38:00,52.7,35.1,30.22,ENE,78,0.0,0.0,51,0.00,,---,0.00,0.00,VWS V14.00,2013-03-07 00:38:00,
2013-03-06 18:50:00,51.7,34.7,30.22,ENE,78,0.0,0.0,52,0.00,,---,0.00,0.00,VWS V14.00,2013-03-07 00:50:00,
2013-03-06 18:58:00,51.0,34.0,30.23,ENE,78,0.0,0.0,52,0.00,,---,0.00,0.00,VWS V14.00,2013-03-07 00:58:00,
2013-03-06 19:06:00,49.9,32.0,30.23,ENE,78,0.0,0.0,50,0.00,,---,0.00,0.00,VWS V14.00,2013-03-07 01:06:00,
2013-03-06 19:14:00,50.3,32.4,30.23,ENE,78,0.0,0.0,50,0.00,,---,0.00,0.00,VWS V14.00,2013-03-07 01:14:00,
2013-03-06 19:22:00,50.4,31.5,30.23,ENE,78,0.0,0.0,48,0.00,,---,0.00,0.00,VWS V14.00,2013-03-07 01:22:00,
2013-03-06 19:30:00,49.5,32.1,30.23,ENE,78,0.0,0.0,51,0.00,,---,0.00,0.00,VWS V14.00,2013-03-07 01:30:00,
2013-03-06 19:38:00,49.3,32.9,30.24,ENE,78,0.0,0.0,53,0.00,,---,0.00,0.00,VWS V14.00,2013-03-07 01:38:00,
2013-03-06 19:47:00,48.8,34.3,30.24,ENE,78,0.0,0.0,57,0.00,,---,0.00,0.00,VWS V14.00,2013-03-07 01:47:00,
2013-03-06 19:55:00,48.4,33.4,30.24,ENE,78,0.0,0.0,56,0.00,,---,0.00,0.00,VWS V14.00,2013-03-07 01:55:00,
2013-03-06 20:03:00,48.4,33.4,30.24,ENE,78,0.0,0.0,56,0.00,,---,0.00,0.00,VWS V14.00,2013-03-07 02:03:00,
2013-03-06 20:09:00,48.2,32.8,30.24,ENE,78,0.0,0.0,55,0.00,,---,0.00,0.00,VWS V14.00,2013-03-07 02:09:00,
2013-03-06 20:15:00,48.5,33.5,30.24,ENE,78,0.0,0.0,56,0.00,,---,0.00,0.00,VWS V14.00,2013-03-07 02:15:00,
2013-03-06 20:23:00,48.3,35.5,30.24,ENE,78,0.0,0.0,61,0.00,,---,0.00,0.00,VWS V14.00,2013-03-07 02:23:00,
2013-03-06 20:31:00,48.0,34.4,30.24,ENE,78,0.0,0.0,59,0.00,,---,0.00,0.00,VWS V14.00,2013-03-07 02:31:00,
2013-03-06 20:38:00,48.1,35.3,30.24,ENE,78,0.0,0.0,61,0.00,,---,0.00,0.00,VWS V14.00,2013-03-07 02:38:00,
2013-03-06 20:44:00,48.0,34.4,30.24,ENE,78,0.0,0.0,59,0.00,,---,0.00,0.00,VWS V14.00,2013-03-07 02:44:00,
2013-03-06 20:52:00,47.8,34.6,30.24,ENE,78,0.0,0.0,60,0.00,,---,0.00,0.00,VWS V14.00,2013-03-07 02:52:00,
2013-03-06 21:00:00,48.0,38.3,30.24,ENE,78,0.0,0.0,69,0.00,,---,0.00,0.00,VWS V14.00,2013-03-07 03:00:00,
2013-03-06 21:08:00,47.9,37.5,30.24,ENE,78,0.0,0.0,67,0.00,,---,0.00,0.00,VWS V14.00,2013-03-07 03:08:00,
2013-03-06 21:16:00,47.8,38.9,30.24,ENE,78,0.0,0.0,71,0.00,,---,0.00,0.00,VWS V14.00,2013-03-07 03:16:00,
2013-03-06 21:24:00,47.3,38.7,30.24,ENE,78,0.0,0.0,72,0.00,,---,0.00,0.00,VWS V14.00,2013-03-07 03:24:00,
2013-03-06 21:32:00,46.8,36.8,30.24,ENE,78,0.0,0.0,68,0.00,,---,0.00,0.00,VWS V14.00,2013-03-07 03:32:00,
2013-03-06 21:38:00,46.4,36.8,30.23,ENE,78,0.0,0.0,69,0.00,,---,0.00,0.00,VWS V14.00,2013-03-07 03:38:00,
2013-03-06 21:45:00,46.3,36.0,30.23,ENE,78,0.0,0.0,67,0.00,,---,0.00,0.00,VWS V14.00,2013-03-07 03:45:00,
2013-03-06 21:53:00,46.3,38.1,30.23,ENE,78,0.0,0.0,73,0.00,,---,0.00,0.00,VWS V14.00,2013-03-07 03:53:00,
2013-03-06 22:01:00,44.9,37.5,30.23,ENE,78,0.0,0.0,75,0.00,,---,0.00,0.00,VWS V14.00,2013-03-07 04:01:00,
2013-03-06 22:09:00,45.1,36.6,30.22,ENE,78,0.0,0.0,72,0.00,,---,0.00,0.00,VWS V14.00,2013-03-07 04:09:00,
2013-03-06 22:17:00,44.6,37.5,30.22,ENE,78,0.0,0.0,76,0.00,,---,0.00,0.00,VWS V14.00,2013-03-07 04:17:00,
2013-03-06 22:26:00,44.8,36.7,30.21,East,83,2.0,2.0,73,0.00,,---,0.00,0.00,VWS V14.00,2013-03-07 04:26:00,
2013-03-06 22:34:00,48.8,34.3,30.21,ESE,119,2.0,3.0,57,0.00,,---,0.00,0.00,VWS V14.00,2013-03-07 04:34:00,
2013-03-06 22:42:00,47.0,33.8,30.21,ESE,119,0.0,0.0,60,0.00,,---,0.00,0.00,VWS V14.00,2013-03-07 04:42:00,
2013-03-06 22:50:00,46.1,33.8,30.21,SE,126,2.0,3.0,62,0.00,,---,0.00,0.00,VWS V14.00,2013-03-07 04:50:00,
2013-03-06 22:58:00,49.4,31.1,30.21,SE,134,2.0,3.0,49,0.00,,---,0.00,0.00,VWS V14.00,2013-03-07 04:58:00,
2013-03-06 23:02:00,49.6,30.7,30.21,SE,136,2.0,3.0,48,0.00,,---,0.00,0.00,VWS V14.00,2013-03-07 05:02:00,
2013-03-06 23:06:00,49.6,29.1,30.21,SE,136,0.0,3.0,45,0.00,,---,0.00,0.00,VWS V14.00,2013-03-07 05:06:00,
2013-03-06 23:14:00,46.1,33.0,30.21,SE,136,0.0,0.0,60,0.00,,---,0.00,0.00,VWS V14.00,2013-03-07 05:14:00,
2013-03-06 23:23:00,45.2,30.9,30.21,SE,136,0.0,0.0,57,0.00,,---,0.00,0.00,VWS V14.00,2013-03-07 05:23:00,
2013-03-06 23:31:00,46.1,30.9,30.21,SE,136,0.0,0.0,55,0.00,,---,0.00,0.00,VWS V14.00,2013-03-07 05:31:00,
2013-03-06 23:38:00,47.3,30.6,30.20,SE,134,3.0,4.0,52,0.00,,---,0.00,0.00,VWS V14.00,2013-03-07 05:38:00,
2013-03-06 23:47:00,47.6,29.9,30.20,SE,131,3.0,4.0,50,0.00,,---,0.00,0.00,VWS V14.00,2013-03-07 05:47:00,
2013-03-06 23:55:00,47.9,28.7,30.19,SE,130,1.0,4.0,47,0.00,,---,0.00,0.00,VWS V14.00,2013-03-07 05:55:00,